Time;durP1;ratioP1;P1;durP2;ratioP2;P2;SDS_P1;SDS_P2;PMS_P1;PMS_P2;Temp;Humidity;BMP_temperature;BMP_pressure;BME280_temperature;BME280_humidity;BME280_pressure;Samples;Min_cycle;Max_cycle;Signal;HPM_P1;HPM_P2
2023/08/23 00:01:35;;;;;;;0.05;0.05;;;;;;;24.06;92.07;100315.84;5058080;28;20107;-61
2023/08/23 00:04:00;;;;;;;0.00;0.00;;;;;;;24.04;92.26;100321.41;5069267;28;20056;-61
2023/08/23 00:06:25;;;;;;;0.00;0.00;;;;;;;24.01;91.80;100328.94;5066419;28;21637;-62
2023/08/23 00:08:51;;;;;;;0.10;0.10;;;;;;;24.00;91.66;100319.94;5068758;28;20025;-62
2023/08/23 00:11:17;;;;;;;0.00;0.00;;;;;;;24.01;91.38;100323.53;5068728;28;20568;-62
2023/08/23 00:13:42;;;;;;;0.05;0.05;;;;;;;23.99;91.32;100317.34;5088198;28;20048;-61
2023/08/23 00:16:07;;;;;;;0.10;0.10;;;;;;;23.99;91.54;100314.63;5085921;28;20459;-61
2023/08/23 00:18:33;;;;;;;0.00;0.00;;;;;;;23.96;92.04;100323.00;5088416;28;20028;-61
2023/08/23 00:20:58;;;;;;;0.08;0.08;;;;;;;23.91;91.85;100322.50;5088031;28;20035;-62
2023/08/23 00:23:24;;;;;;;0.00;0.00;;;;;;;23.90;92.29;100320.81;5077943;28;20023;-61
2023/08/23 00:25:49;;;;;;;0.00;0.00;;;;;;;23.86;92.42;100320.19;5089069;28;20427;-62
2023/08/23 00:28:19;;;;;;;0.10;0.10;;;;;;;23.87;92.67;100319.19;5081522;28;20029;-61
2023/08/23 00:30:49;;;;;;;0.00;0.00;;;;;;;23.81;91.94;100310.69;5068883;28;20025;-61
2023/08/23 00:33:14;;;;;;;0.00;0.00;;;;;;;23.80;91.85;100314.41;5068478;28;20032;-62
2023/08/23 00:35:40;;;;;;;0.10;0.10;;;;;;;23.76;91.57;100313.78;5071788;28;20103;-61
2023/08/23 00:38:05;;;;;;;0.00;0.00;;;;;;;23.78;91.74;100308.22;5069513;28;20834;-62
2023/08/23 00:40:31;;;;;;;0.00;0.00;;;;;;;23.75;91.46;100312.06;5077571;28;20070;-61
2023/08/23 00:42:57;;;;;;;0.00;0.00;;;;;;;23.75;91.96;100305.75;5089196;28;20055;-60
2023/08/23 00:45:22;;;;;;;0.10;0.10;;;;;;;23.73;92.00;100308.59;5089693;28;20212;-61
2023/08/23 00:47:49;;;;;;;0.10;0.10;;;;;;;23.68;91.85;100302.69;5089357;28;20023;-62
2023/08/23 00:50:14;;;;;;;0.10;0.10;;;;;;;23.72;91.32;100306.00;5074589;28;20032;-61
2023/08/23 00:52:41;;;;;;;0.10;0.10;;;;;;;23.71;91.23;100312.41;5069463;28;20063;-62
2023/08/23 00:55:07;;;;;;;0.00;0.00;;;;;;;23.67;91.19;100300.09;5077001;28;20024;-62
2023/08/23 00:57:33;;;;;;;0.10;0.10;;;;;;;23.65;90.61;100305.66;5088296;28;20032;-61
2023/08/23 00:59:58;;;;;;;0.10;0.10;;;;;;;23.64;91.31;100311.22;5071220;28;20055;-61
2023/08/23 01:02:24;;;;;;;0.08;0.08;;;;;;;23.62;90.78;100313.19;5068978;28;20115;-62
2023/08/23 01:04:49;;;;;;;0.10;0.10;;;;;;;23.61;90.65;100315.03;5069257;28;20052;-62
2023/08/23 01:07:23;;;;;;;0.10;0.10;;;;;;;23.62;90.81;100313.19;5076315;28;20016;-62
2023/08/23 01:10:02;;;;;;;0.10;0.10;;;;;;;23.61;90.24;100314.19;5070660;28;20081;-62
2023/08/23 01:13:09;;;;;;;0.10;0.10;;;;;;;23.58;91.04;100330.69;5067376;28;20098;-61
2023/08/23 01:15:35;;;;;;;0.00;0.00;;;;;;;23.54;90.49;100324.69;5069660;28;20028;-61
2023/08/23 01:18:02;;;;;;;0.00;0.00;;;;;;;23.51;91.02;100324.06;5086854;28;20479;-62
2023/08/23 01:20:28;;;;;;;0.10;0.10;;;;;;;23.51;90.68;100302.34;5085125;28;20111;-62
2023/08/23 01:23:02;;;;;;;0.00;0.00;;;;;;;23.52;90.79;100331.22;5078141;28;20107;-62
2023/08/23 01:25:27;;;;;;;0.10;0.10;;;;;;;23.52;91.35;100325.78;5088080;28;20635;-62
2023/08/23 01:27:53;;;;;;;0.08;0.08;;;;;;;23.49;91.92;100326.03;5086062;28;20027;-61
2023/08/23 01:30:19;;;;;;;0.00;0.00;;;;;;;23.32;92.74;100306.53;5088231;28;20053;-61
2023/08/23 01:32:51;;;;;;;0.10;0.10;;;;;;;23.41;92.82;100324.78;5084415;28;20115;-61
2023/08/23 01:35:21;;;;;;;0.00;0.00;;;;;;;23.37;93.60;100334.19;5088792;28;20032;-61
2023/08/23 01:37:50;;;;;;;0.10;0.10;;;;;;;23.33;93.42;100335.41;5088731;28;20036;-61
2023/08/23 01:40:17;;;;;;;0.10;0.10;;;;;;;23.35;93.36;100336.16;5073027;28;20032;-61
2023/08/23 01:42:43;;;;;;;0.10;0.10;;;;;;;23.33;93.96;100342.69;5068710;28;20102;-62
2023/08/23 01:45:09;;;;;;;0.03;0.03;;;;;;;23.12;93.40;100304.53;5073814;28;20085;-62
2023/08/23 01:47:35;;;;;;;0.10;0.10;;;;;;;23.25;93.90;100326.97;5088637;28;20464;-61
2023/08/23 01:50:00;;;;;;;0.10;0.10;;;;;;;23.24;94.19;100330.66;5088605;28;20028;-62
2023/08/23 01:52:25;;;;;;;0.00;0.00;;;;;;;23.24;93.95;100333.38;5071944;28;20032;-62
2023/08/23 01:54:51;;;;;;;0.10;0.10;;;;;;;23.21;94.17;100330.06;5075045;28;20081;-62
2023/08/23 01:57:16;;;;;;;0.10;0.10;;;;;;;23.18;94.70;100328.44;5081768;28;20400;-63
2023/08/23 01:59:43;;;;;;;0.00;0.00;;;;;;;23.17;94.88;100326.72;5068654;28;20028;-62
2023/08/23 02:02:09;;;;;;;0.10;0.10;;;;;;;23.14;95.13;100320.69;5050095;28;20060;-62
2023/08/23 02:04:34;;;;;;;0.10;0.10;;;;;;;23.13;95.81;100330.66;5078446;28;20394;-62
2023/08/23 02:07:00;;;;;;;0.10;0.10;;;;;;;23.08;95.91;100332.88;5087538;28;20081;-62
2023/08/23 02:09:26;;;;;;;0.10;0.10;;;;;;;23.04;96.55;100317.84;5084482;28;20032;-62
2023/08/23 02:11:52;;;;;;;0.10;0.10;;;;;;;22.98;96.59;100321.00;5087309;28;20044;-62
2023/08/23 02:14:17;;;;;;;0.08;0.08;;;;;;;22.96;96.72;100316.69;5085510;28;20089;-62
2023/08/23 02:16:42;;;;;;;0.10;0.10;;;;;;;22.93;96.60;100319.66;5078842;28;20027;-62
2023/08/23 02:19:08;;;;;;;0.10;0.10;;;;;;;22.86;96.79;100308.44;5087128;28;20467;-61
2023/08/23 02:21:34;;;;;;;0.10;0.10;;;;;;;22.81;97.54;100317.91;5087053;28;20506;-61
2023/08/23 02:24:00;;;;;;;0.10;0.10;;;;;;;22.80;97.68;100321.59;5083575;28;20036;-61
2023/08/23 02:26:25;;;;;;;0.10;0.10;;;;;;;22.77;97.73;100316.41;5066726;28;20036;-61
2023/08/23 02:28:50;;;;;;;0.10;0.10;;;;;;;22.81;97.75;100316.06;5067521;28;20119;-62
2023/08/23 02:31:16;;;;;;;0.10;0.10;;;;;;;22.82;96.55;100315.06;5072531;28;20126;-61
2023/08/23 02:33:41;;;;;;;0.10;0.10;;;;;;;22.81;96.92;100328.75;5067110;28;20032;-61
2023/08/23 02:36:07;;;;;;;0.03;0.03;;;;;;;22.80;96.82;100333.31;5082915;28;20062;-61
2023/08/23 02:38:32;;;;;;;0.10;0.10;;;;;;;22.80;96.66;100327.88;5070015;28;20136;-61
2023/08/23 02:40:57;;;;;;;0.10;0.10;;;;;;;22.78;97.15;100332.59;5067983;28;20029;-61
2023/08/23 02:43:23;;;;;;;0.10;0.10;;;;;;;22.74;97.09;100317.50;5070383;28;20103;-61
2023/08/23 02:45:48;;;;;;;0.10;0.10;;;;;;;22.71;97.49;100322.31;5076869;28;20438;-62
2023/08/23 02:48:14;;;;;;;0.10;0.10;;;;;;;22.65;97.67;100318.22;5087330;28;20028;-61
2023/08/23 02:50:40;;;;;;;0.00;0.00;;;;;;;22.62;97.68;100318.47;5087876;28;20036;-62
2023/08/23 02:53:05;;;;;;;0.10;0.10;;;;;;;22.56;98.21;100318.06;5084325;28;20112;-61
2023/08/23 02:55:35;;;;;;;0.10;0.10;;;;;;;22.54;98.75;100320.91;5087803;28;20032;-62
2023/08/23 02:58:01;;;;;;;0.10;0.10;;;;;;;22.54;99.19;100326.31;5083088;28;20052;-62
2023/08/23 03:00:26;;;;;;;0.10;0.10;;;;;;;22.52;99.89;100327.41;5067561;28;20068;-61
2023/08/23 03:02:51;;;;;;;0.10;0.10;;;;;;;22.50;100.00;100319.38;5067435;28;20024;-61
2023/08/23 03:05:17;;;;;;;0.10;0.10;;;;;;;22.50;100.00;100319.38;5072310;28;20024;-61
2023/08/23 03:07:42;;;;;;;0.10;0.10;;;;;;;22.49;100.00;100314.94;5079200;28;20020;-61
2023/08/23 03:10:08;;;;;;;0.10;0.10;;;;;;;22.50;100.00;100322.09;5086300;28;20031;-62
2023/08/23 03:12:33;;;;;;;0.00;0.00;;;;;;;22.54;100.00;100320.91;5076924;28;20137;-62
2023/08/23 03:14:59;;;;;;;0.10;0.10;;;;;;;22.58;100.00;100316.97;5056190;28;20086;-62
2023/08/23 03:17:24;;;;;;;0.10;0.10;;;;;;;22.59;100.00;100318.69;5061503;28;20457;-62
2023/08/23 03:19:49;;;;;;;0.10;0.10;;;;;;;22.64;100.00;100318.34;5070003;28;20032;-62
2023/08/23 03:22:15;;;;;;;0.10;0.10;;;;;;;22.63;99.27;100314.78;5070760;28;20689;-62
2023/08/23 03:24:40;;;;;;;0.08;0.08;;;;;;;22.66;98.86;100309.13;5057641;28;20033;-61
2023/08/23 03:27:06;;;;;;;0.10;0.10;;;;;;;22.68;98.29;100312.56;5052707;28;20124;-61
2023/08/23 03:29:31;;;;;;;0.10;0.10;;;;;;;22.70;97.92;100310.59;5059889;28;20123;-62
2023/08/23 03:31:56;;;;;;;0.10;0.10;;;;;;;22.68;97.74;100309.00;5057403;28;20712;-61
2023/08/23 03:34:22;;;;;;;0.10;0.10;;;;;;;22.63;97.50;100308.47;5050380;28;20049;-61
2023/08/23 03:36:48;;;;;;;0.10;0.10;;;;;;;22.54;97.59;100299.19;5069898;28;20028;-62
2023/08/23 03:39:14;;;;;;;0.10;0.10;;;;;;;22.49;97.90;100300.53;5070032;28;20038;-61
2023/08/23 03:41:39;;;;;;;0.10;0.10;;;;;;;22.49;97.95;100308.66;5052672;28;20092;-62
2023/08/23 03:44:04;;;;;;;0.10;0.10;;;;;;;22.47;97.57;100297.91;5068048;28;20070;-62
2023/08/23 03:46:30;;;;;;;0.10;0.10;;;;;;;22.48;97.90;100305.06;5066713;28;20477;-61
2023/08/23 03:48:56;;;;;;;0.10;0.10;;;;;;;22.46;98.40;100306.16;5070545;28;20032;-61
2023/08/23 03:51:21;;;;;;;0.10;0.10;;;;;;;22.46;98.75;100303.44;5062696;28;20455;-62
2023/08/23 03:53:47;;;;;;;0.10;0.10;;;;;;;22.45;98.61;100302.59;5050600;28;20112;-62
2023/08/23 03:56:12;;;;;;;0.10;0.10;;;;;;;22.37;98.96;100307.75;5068177;28;20051;-61
2023/08/23 03:58:38;;;;;;;0.10;0.10;;;;;;;22.37;99.29;100305.03;5069864;28;20046;-62
2023/08/23 04:01:03;;;;;;;0.10;0.10;;;;;;;22.35;99.50;100312.41;5058133;28;20076;-61
2023/08/23 04:03:29;;;;;;;0.10;0.10;;;;;;;22.33;99.98;100306.25;5049139;28;20444;-62
2023/08/23 04:05:54;;;;;;;0.10;0.10;;;;;;;22.30;100.00;100305.59;5051309;28;20618;-61
2023/08/23 04:08:19;;;;;;;0.10;0.10;;;;;;;22.29;100.00;100302.03;5048969;28;20039;-61
2023/08/23 04:10:49;;;;;;;0.10;0.10;;;;;;;22.25;100.00;100292.41;5051431;28;20811;-61
2023/08/23 04:13:16;;;;;;;0.00;0.00;;;;;;;22.25;100.00;100300.53;5064173;28;20056;-61
2023/08/23 04:15:42;;;;;;;0.10;0.10;;;;;;;22.24;100.00;100306.94;5069627;28;20028;-61
2023/08/23 04:18:08;;;;;;;0.10;0.10;;;;;;;22.21;100.00;100296.31;5089824;28;20032;-62
2023/08/23 04:20:33;;;;;;;0.10;0.10;;;;;;;22.21;100.00;100301.75;5082230;28;20031;-61
2023/08/23 04:22:58;;;;;;;0.10;0.10;;;;;;;22.18;100.00;100296.56;5086787;28;20070;-61
2023/08/23 04:25:24;;;;;;;0.10;0.10;;;;;;;22.17;100.00;100305.69;5087469;28;20479;-61
2023/08/23 04:27:49;;;;;;;0.10;0.10;;;;;;;22.14;100.00;100308.63;5089941;28;20112;-61
2023/08/23 04:30:15;;;;;;;0.10;0.10;;;;;;;22.13;100.00;100313.19;5078355;28;20040;-61
2023/08/23 04:32:40;;;;;;;0.10;0.10;;;;;;;22.12;100.00;100318.72;5070039;28;20147;-62
2023/08/23 04:35:06;;;;;;;0.10;0.10;;;;;;;22.09;100.00;100313.53;5072304;28;20044;-61
2023/08/23 04:37:31;;;;;;;0.10;0.10;;;;;;;22.08;100.00;100317.19;5069345;28;20023;-62
2023/08/23 04:39:56;;;;;;;0.10;0.10;;;;;;;22.04;100.00;100313.84;5067860;28;20162;-62
2023/08/23 04:42:22;;;;;;;0.10;0.10;;;;;;;22.01;100.00;100310.50;5085098;28;20044;-61
2023/08/23 04:44:47;;;;;;;0.10;0.10;;;;;;;21.94;100.00;100307.38;5088341;28;20729;-62
2023/08/23 04:47:13;;;;;;;0.10;0.10;;;;;;;21.95;100.00;100308.25;5088522;28;20028;-61
2023/08/23 04:49:38;;;;;;;0.10;0.10;;;;;;;21.94;100.00;100311.97;5083750;28;20045;-63
2023/08/23 04:52:04;;;;;;;0.10;0.10;;;;;;;21.93;100.00;100315.63;5068965;28;20024;-62
2023/08/23 04:54:29;;;;;;;0.10;0.10;;;;;;;21.94;100.00;100309.25;5070332;28;20033;-61
2023/08/23 04:56:55;;;;;;;0.10;0.10;;;;;;;21.96;100.00;100313.56;5069622;28;20457;-62
2023/08/23 04:59:20;;;;;;;0.10;0.10;;;;;;;21.96;100.00;100315.41;5068054;28;20128;-62
2023/08/23 05:01:46;;;;;;;0.10;0.10;;;;;;;21.99;100.00;100312.50;5078523;28;20028;-61
2023/08/23 05:04:11;;;;;;;0.10;0.10;;;;;;;22.03;100.00;100319.38;5088348;28;20111;-62
2023/08/23 05:06:37;;;;;;;0.10;0.10;;;;;;;22.05;100.00;100312.00;5087983;28;20024;-61
2023/08/23 05:09:04;;;;;;;0.10;0.10;;;;;;;22.07;100.00;100316.31;5081486;28;20028;-61
2023/08/23 05:11:30;;;;;;;0.10;0.10;;;;;;;22.10;100.00;100317.97;5068436;28;20309;-61
2023/08/23 05:13:55;;;;;;;0.10;0.10;;;;;;;22.04;100.00;100307.59;5068166;28;20044;-62
2023/08/23 05:16:21;;;;;;;0.10;0.10;;;;;;;22.08;100.00;100318.06;5074250;28;20453;-61
2023/08/23 05:18:46;;;;;;;0.10;0.10;;;;;;;22.15;100.00;100318.47;5084089;28;20035;-61
2023/08/23 05:21:12;;;;;;;0.10;0.10;;;;;;;22.19;100.00;100323.53;5076032;28;20032;-61
2023/08/23 05:23:37;;;;;;;0.10;0.10;;;;;;;22.27;100.00;100317.56;5067121;28;20373;-62
2023/08/23 05:26:02;;;;;;;0.10;0.10;;;;;;;22.33;100.00;100319.78;5067220;28;20119;-62
2023/08/23 05:28:28;;;;;;;0.10;0.10;;;;;;;22.40;100.00;100318.34;5076538;28;20016;-62
2023/08/23 05:30:54;;;;;;;0.10;0.10;;;;;;;22.42;100.00;100318.25;5067833;28;20755;-62
2023/08/23 05:33:20;;;;;;;0.10;0.10;;;;;;;22.48;100.00;100315.91;5067855;28;20035;-62
2023/08/23 05:35:45;;;;;;;0.10;0.10;;;;;;;22.55;100.00;100325.34;5070242;28;20031;-62
2023/08/23 05:38:11;;;;;;;0.10;0.10;;;;;;;22.63;100.00;100324.75;5068927;28;20020;-62
2023/08/23 05:40:37;;;;;;;0.10;0.10;;;;;;;22.72;100.00;100326.72;5067789;28;20040;-61
2023/08/23 05:43:03;;;;;;;0.10;0.10;;;;;;;22.79;100.00;100331.59;5069411;28;20067;-62
2023/08/23 05:45:28;;;;;;;0.10;0.10;;;;;;;22.90;100.00;100328.88;5065754;28;20780;-61
2023/08/23 05:47:55;;;;;;;0.10;0.10;;;;;;;23.01;99.34;100331.66;5062617;28;20112;-62
2023/08/23 05:50:21;;;;;;;0.10;0.10;;;;;;;23.14;98.39;100332.41;5066546;28;20033;-62
2023/08/23 05:52:47;;;;;;;0.10;0.10;;;;;;;23.37;97.75;100339.63;5067207;28;20023;-61
2023/08/23 05:55:13;;;;;;;0.10;0.10;;;;;;;23.55;96.50;100345.41;5074106;28;20604;-62
2023/08/23 05:57:39;;;;;;;0.10;0.10;;;;;;;23.78;94.40;100343.53;5081249;28;20380;-61
2023/08/23 06:00:05;;;;;;;0.10;0.10;;;;;;;23.94;93.24;100344.00;5073331;28;20033;-61
2023/08/23 06:02:31;;;;;;;0.10;0.10;;;;;;;23.99;92.29;100337.25;5065999;28;20035;-62
2023/08/23 06:04:56;;;;;;;0.10;0.10;;;;;;;24.01;91.93;100346.13;5069111;28;20039;-61
2023/08/23 06:07:22;;;;;;;0.10;0.10;;;;;;;24.08;91.71;100346.50;5067135;28;20024;-61
2023/08/23 06:09:47;;;;;;;0.10;0.10;;;;;;;24.15;90.91;100342.28;5067033;28;20060;-61
2023/08/23 06:12:12;;;;;;;0.10;0.10;;;;;;;24.33;90.98;100343.47;5069067;28;20070;-62
2023/08/23 06:14:38;;;;;;;0.10;0.10;;;;;;;24.54;87.62;100345.22;5067097;28;20032;-62
2023/08/23 06:17:03;;;;;;;0.10;0.10;;;;;;;24.63;85.26;100346.28;5074673;28;20115;-61
2023/08/23 06:19:29;;;;;;;0.10;0.10;;;;;;;24.71;84.64;100348.41;5087679;28;20028;-62
2023/08/23 06:21:54;;;;;;;0.10;0.10;;;;;;;24.81;85.18;100350.19;5087973;28;20492;-62
2023/08/23 06:24:19;;;;;;;0.00;0.00;;;;;;;24.83;83.38;100356.38;5084477;28;20028;-62
2023/08/23 06:26:46;;;;;;;0.10;0.10;;;;;;;24.88;82.65;100351.38;5088235;28;20024;-62
2023/08/23 06:29:12;;;;;;;0.10;0.10;;;;;;;24.90;82.29;100357.56;5081462;28;20036;-62
2023/08/23 06:31:37;;;;;;;0.10;0.10;;;;;;;25.05;81.83;100360.81;5067958;28;20035;-62
2023/08/23 06:34:03;;;;;;;0.10;0.10;;;;;;;25.22;82.25;100357.50;5067806;28;20037;-61
2023/08/23 06:36:29;;;;;;;0.10;0.10;;;;;;;25.37;81.42;100356.19;5067912;28;20036;-62
2023/08/23 06:38:54;;;;;;;0.10;0.10;;;;;;;25.51;79.97;100358.53;5077168;28;20036;-62
2023/08/23 06:41:20;;;;;;;0.05;0.05;;;;;;;25.61;79.01;100359.47;5086949;28;20077;-62
2023/08/23 06:43:47;;;;;;;0.10;0.10;;;;;;;25.72;78.63;100365.66;5084601;28;20035;-62
2023/08/23 06:46:13;;;;;;;0.10;0.10;;;;;;;25.80;77.49;100360.41;5071616;28;20073;-62
2023/08/23 06:48:38;;;;;;;0.10;0.10;;;;;;;25.98;77.74;100357.03;5086897;28;20032;-62
2023/08/23 06:51:03;;;;;;;0.00;0.00;;;;;;;26.30;76.09;100363.13;5086479;28;20020;-63
2023/08/23 06:53:29;;;;;;;0.00;0.00;;;;;;;26.68;74.52;100363.22;5080711;28;20043;-61
2023/08/23 06:55:55;;;;;;;0.00;0.00;;;;;;;26.95;72.93;100366.09;5085971;28;20453;-62
2023/08/23 06:58:21;;;;;;;0.00;0.00;;;;;;;26.96;72.17;100367.78;5088864;28;20016;-62
2023/08/23 07:00:46;;;;;;;0.10;0.10;;;;;;;27.09;71.93;100362.88;5073530;28;20082;-62
2023/08/23 07:03:12;;;;;;;0.00;0.00;;;;;;;27.27;71.07;100368.44;5070844;28;20025;-62
2023/08/23 07:05:37;;;;;;;0.05;0.05;;;;;;;27.39;67.63;100351.78;5073690;28;20108;-62
2023/08/23 07:08:03;;;;;;;0.00;0.00;;;;;;;27.57;68.83;100354.59;5070965;28;20392;-62
2023/08/23 07:10:30;;;;;;;0.00;0.00;;;;;;;27.87;66.57;100363.41;5071608;28;20033;-62
2023/08/23 07:12:56;;;;;;;0.00;0.00;;;;;;;28.22;66.27;100365.41;5073396;28;20528;-62
2023/08/23 07:15:22;;;;;;;0.00;0.00;;;;;;;28.66;65.41;100366.41;5071495;28;20062;-62
2023/08/23 07:17:48;;;;;;;0.00;0.00;;;;;;;28.93;64.33;100363.59;5089310;28;20052;-62
2023/08/23 07:20:14;;;;;;;0.00;0.00;;;;;;;29.36;62.41;100364.47;5076243;28;20895;-62
2023/08/23 07:22:40;;;;;;;0.00;0.00;;;;;;;29.42;60.77;100372.03;5071033;28;20040;-62
2023/08/23 07:25:06;;;;;;;0.00;0.00;;;;;;;29.47;59.01;100374.31;5082292;28;20107;-62
2023/08/23 07:27:32;;;;;;;0.00;0.00;;;;;;;29.71;59.23;100379.09;5089434;28;20039;-62
2023/08/23 07:29:58;;;;;;;0.10;0.10;;;;;;;29.94;58.90;100377.50;5086081;28;20029;-62
2023/08/23 07:32:24;;;;;;;0.00;0.00;;;;;;;30.01;58.29;100368.47;5073214;28;20120;-62
2023/08/23 07:34:50;;;;;;;0.00;0.00;;;;;;;30.34;57.06;100373.06;5053067;28;20032;-62
2023/08/23 07:37:17;;;;;;;0.00;0.00;;;;;;;30.59;55.96;100372.09;5073229;28;20702;-62
2023/08/23 07:39:43;;;;;;;0.00;0.00;;;;;;;30.72;55.49;100366.97;5078007;28;20552;-62
2023/08/23 07:42:09;;;;;;;0.00;0.00;;;;;;;30.72;55.88;100375.22;5050501;28;20029;-62
2023/08/23 07:44:34;;;;;;;0.00;0.00;;;;;;;30.74;56.10;100375.88;5071553;28;20465;-62
2023/08/23 07:47:00;;;;;;;0.00;0.00;;;;;;;31.06;55.23;100385.22;5079807;28;20536;-62
2023/08/23 07:49:26;;;;;;;0.00;0.00;;;;;;;31.25;54.68;100384.88;5080189;28;20427;-62
2023/08/23 07:51:51;;;;;;;0.00;0.00;;;;;;;31.26;55.07;100381.97;5069281;28;20024;-62
2023/08/23 07:54:17;;;;;;;0.00;0.00;;;;;;;31.55;53.58;100387.78;5070228;28;20031;-62
2023/08/23 07:56:42;;;;;;;0.00;0.00;;;;;;;31.85;51.70;100377.91;5089404;28;20103;-62
2023/08/23 07:59:07;;;;;;;0.00;0.00;;;;;;;32.11;52.06;100389.53;5076939;28;20043;-62
2023/08/23 08:01:33;;;;;;;0.00;0.00;;;;;;;32.29;51.35;100387.38;5072330;28;20036;-62
2023/08/23 08:03:58;;;;;;;0.00;0.00;;;;;;;32.32;51.99;100387.03;5068993;28;20115;-62
2023/08/23 08:06:24;;;;;;;0.00;0.00;;;;;;;32.66;50.67;100389.44;5069354;28;20464;-62
2023/08/23 08:08:49;;;;;;;0.00;0.00;;;;;;;32.90;49.97;100392.91;5073467;28;20043;-62
2023/08/23 08:11:15;;;;;;;0.00;0.00;;;;;;;33.06;48.36;100398.34;5090468;28;20499;-62
2023/08/23 08:13:41;;;;;;;0.00;0.00;;;;;;;33.25;49.64;100386.78;5089713;28;20561;-62
2023/08/23 08:16:13;;;;;;;0.00;0.00;;;;;;;33.31;48.51;100388.78;5079527;28;20032;-62
2023/08/23 08:18:39;;;;;;;0.00;0.00;;;;;;;33.36;47.84;100388.25;5089537;28;20039;-62
2023/08/23 08:21:05;;;;;;;0.00;0.00;;;;;;;33.28;48.54;100386.41;5083979;28;20058;-62
2023/08/23 08:23:31;;;;;;;0.00;0.00;;;;;;;33.42;48.29;100381.13;5069245;28;20033;-62
2023/08/23 08:25:57;;;;;;;0.00;0.00;;;;;;;33.49;48.88;100398.66;5088475;28;20077;-62
2023/08/23 08:28:22;;;;;;;0.00;0.00;;;;;;;33.65;47.44;100385.56;5082810;28;20486;-62
2023/08/23 08:30:48;;;;;;;0.00;0.00;;;;;;;33.95;47.34;100394.75;5090141;28;20038;-62
2023/08/23 08:33:13;;;;;;;0.00;0.00;;;;;;;34.05;48.14;100400.84;5073496;28;20599;-62
2023/08/23 08:35:39;;;;;;;0.00;0.00;;;;;;;34.11;46.65;100403.69;5068345;28;20532;-62
2023/08/23 08:38:08;;;;;;;0.00;0.00;;;;;;;33.95;47.86;100395.59;5070066;28;20555;-62
2023/08/23 08:40:35;;;;;;;0.00;0.00;;;;;;;34.13;46.99;100393.31;5067805;28;20024;-62
2023/08/23 08:43:00;;;;;;;0.00;0.00;;;;;;;34.17;46.69;100388.22;5070659;28;20445;-62
2023/08/23 08:45:27;;;;;;;0.00;0.00;;;;;;;34.43;45.12;100386.69;5087560;28;20032;-62
2023/08/23 08:47:52;;;;;;;0.00;0.00;;;;;;;34.48;46.32;100389.75;5077037;28;20028;-62
2023/08/23 08:50:17;;;;;;;0.00;0.00;;;;;;;34.32;45.64;100392.69;5068076;28;20086;-62
2023/08/23 08:52:51;;;;;;;0.00;0.00;;;;;;;34.34;45.35;100395.28;5071197;28;20043;-62
2023/08/23 08:55:18;;;;;;;0.00;0.00;;;;;;;34.52;44.91;100392.97;5078281;28;20471;-63
2023/08/23 08:57:45;;;;;;;0.00;0.00;;;;;;;34.52;45.63;100392.97;5088991;28;20024;-62
2023/08/23 09:00:12;;;;;;;0.00;0.00;;;;;;;34.54;45.33;100404.69;5075804;28;20135;-62
2023/08/23 09:02:39;;;;;;;0.00;0.00;;;;;;;34.96;44.66;100401.19;5070012;28;20025;-62
2023/08/23 09:05:05;;;;;;;0.00;0.00;;;;;;;35.14;44.08;100396.03;5068426;28;20504;-62
2023/08/23 09:07:31;;;;;;;0.00;0.00;;;;;;;35.40;45.18;100393.53;5066255;28;20035;-63
2023/08/23 09:09:57;;;;;;;0.00;0.00;;;;;;;35.48;45.20;100388.72;5083422;28;20059;-63
2023/08/23 09:12:23;;;;;;;0.00;0.00;;;;;;;35.61;43.55;100382.41;5068314;28;20515;-63
2023/08/23 09:14:49;;;;;;;0.00;0.00;;;;;;;35.58;44.77;100380.91;5070444;28;20064;-62
2023/08/23 09:17:15;;;;;;;0.00;0.00;;;;;;;35.59;43.44;100388.16;5081353;28;20031;-62
2023/08/23 09:19:40;;;;;;;0.00;0.00;;;;;;;35.44;44.23;100390.16;5086886;28;20044;-62
2023/08/23 09:22:06;;;;;;;0.00;0.00;;;;;;;35.44;43.67;100390.16;5069204;28;20027;-62
2023/08/23 09:24:32;;;;;;;0.00;0.00;;;;;;;35.76;44.73;100392.31;5069022;28;20034;-62
2023/08/23 09:26:58;;;;;;;0.00;0.00;;;;;;;35.69;43.66;100390.56;5067810;28;20058;-62
2023/08/23 09:29:24;;;;;;;0.00;0.00;;;;;;;35.56;45.77;100391.31;5072751;28;20031;-62
2023/08/23 09:31:49;;;;;;;0.00;0.00;;;;;;;36.07;44.37;100393.81;5086548;28;20344;-62
2023/08/23 09:34:16;;;;;;;0.00;0.00;;;;;;;36.19;42.68;100394.94;5085495;28;20020;-62
2023/08/23 09:36:42;;;;;;;0.00;0.00;;;;;;;36.30;43.45;100391.56;5082794;28;20028;-62
2023/08/23 09:39:11;;;;;;;0.00;0.00;;;;;;;36.73;42.78;100393.06;5087841;28;20028;-62
2023/08/23 09:41:39;;;;;;;0.00;0.00;;;;;;;36.62;42.28;100379.81;5077560;28;20449;-62
2023/08/23 09:44:06;;;;;;;0.00;0.00;;;;;;;36.58;41.87;100389.59;5067366;28;20420;-62
2023/08/23 09:46:35;;;;;;;0.00;0.00;;;;;;;36.70;42.95;100387.94;5073541;28;20054;-62
2023/08/23 09:49:03;;;;;;;0.00;0.00;;;;;;;36.71;41.35;100384.94;5050089;28;20050;-62
2023/08/23 09:51:34;;;;;;;0.00;0.00;;;;;;;36.78;41.53;100379.41;5082765;28;20031;-62
2023/08/23 09:54:07;;;;;;;0.00;0.00;;;;;;;36.84;41.76;100381.38;5074415;28;20416;-62
2023/08/23 09:56:33;;;;;;;0.00;0.00;;;;;;;36.81;42.11;100384.56;5088590;28;20039;-62
2023/08/23 09:58:59;;;;;;;0.00;0.00;;;;;;;36.79;41.19;100397.78;5084420;28;20476;-62
2023/08/23 10:01:26;;;;;;;0.00;0.00;;;;;;;36.92;40.48;100398.69;5082392;28;20029;-62
2023/08/23 10:03:51;;;;;;;0.00;0.00;;;;;;;36.72;40.28;100388.59;5068220;28;20058;-62
2023/08/23 10:06:18;;;;;;;0.00;0.00;;;;;;;37.03;41.28;100391.66;5068374;28;20037;-62
2023/08/23 10:08:44;;;;;;;0.00;0.00;;;;;;;36.94;41.19;100393.78;5074095;28;20208;-62
2023/08/23 10:11:10;;;;;;;0.00;0.00;;;;;;;37.17;42.60;100385.06;5088687;28;20040;-62
2023/08/23 10:13:37;;;;;;;0.00;0.00;;;;;;;37.41;40.50;100386.38;5073579;28;20048;-62
2023/08/23 10:16:04;;;;;;;0.00;0.00;;;;;;;37.34;39.66;100386.38;5050983;28;20032;-62
2023/08/23 10:18:31;;;;;;;0.00;0.00;;;;;;;37.23;40.03;100383.34;5057980;28;20393;-63
2023/08/23 10:20:56;;;;;;;0.00;0.00;;;;;;;37.08;40.11;100379.94;5049816;28;20036;-63
2023/08/23 10:23:22;;;;;;;0.00;0.00;;;;;;;36.91;41.19;100368.38;5047978;28;20040;-63
2023/08/23 10:25:48;;;;;;;0.00;0.00;;;;;;;36.87;40.80;100378.19;5052458;28;20128;-62
2023/08/23 10:28:16;;;;;;;0.00;0.00;;;;;;;37.07;39.66;100367.13;5060046;28;20028;-62
2023/08/23 10:30:46;;;;;;;0.00;0.00;;;;;;;36.99;40.73;100370.94;5054199;28;20112;-62
2023/08/23 10:33:14;;;;;;;0.00;0.00;;;;;;;36.75;40.57;100374.28;5051503;28;20025;-63
2023/08/23 10:35:42;;;;;;;0.00;0.00;;;;;;;36.54;41.95;100371.69;5058616;28;20028;-62
2023/08/23 10:38:09;;;;;;;0.00;0.00;;;;;;;36.58;40.72;100367.41;5053521;28;20120;-62
2023/08/23 10:40:38;;;;;;;0.00;0.00;;;;;;;36.84;40.81;100356.41;5050302;28;20420;-62
2023/08/23 10:43:12;;;;;;;0.00;0.00;;;;;;;37.02;40.88;100367.75;5051391;28;20108;-63
2023/08/23 10:46:03;;;;;;;0.00;0.00;;;;;;;37.22;41.62;100357.50;5051337;28;20036;-62
2023/08/23 10:48:28;;;;;;;0.00;0.00;;;;;;;37.38;40.38;100370.16;5058637;28;20103;-62
2023/08/23 10:50:55;;;;;;;0.00;0.00;;;;;;;37.50;40.71;100369.28;5051701;28;20112;-62
2023/08/23 10:53:21;;;;;;;0.00;0.00;;;;;;;37.74;39.12;100368.66;5069539;28;20024;-62
2023/08/23 10:55:48;;;;;;;0.00;0.00;;;;;;;37.83;39.25;100370.13;5055220;28;20029;-63
2023/08/23 10:58:15;;;;;;;0.00;0.00;;;;;;;37.58;39.63;100360.72;5060174;28;20461;-62
2023/08/23 11:00:45;;;;;;;0.00;0.00;;;;;;;37.83;38.94;100369.25;5054985;28;20040;-62
2023/08/23 11:03:12;;;;;;;0.00;0.00;;;;;;;38.07;38.07;100371.34;5077359;28;20024;-62
2023/08/23 11:05:38;;;;;;;0.00;0.00;;;;;;;38.06;38.84;100376.03;5055919;28;20074;-62
2023/08/23 11:08:04;;;;;;;0.00;0.00;;;;;;;37.95;38.46;100362.84;5068633;28;20052;-62
2023/08/23 11:10:30;;;;;;;0.00;0.00;;;;;;;37.76;38.51;100369.28;5068683;28;20155;-63
2023/08/23 11:12:56;;;;;;;0.00;0.00;;;;;;;37.60;38.65;100372.47;5082528;28;20224;-63
2023/08/23 11:15:22;;;;;;;0.00;0.00;;;;;;;37.82;38.52;100367.56;5090539;28;20115;-62
2023/08/23 11:17:48;;;;;;;0.00;0.00;;;;;;;38.20;39.27;100354.66;5088591;28;20107;-63
2023/08/23 11:20:13;;;;;;;0.00;0.00;;;;;;;38.33;37.63;100364.84;5084859;28;20811;-63